Breezewood Park, Indiana
Current Conditions -  °F | °C
As of 9:53 AM on Tuesday 21 Oct 2014 (Local Time) from KMIE Reporting Station
Broken Clouds Broken Clouds  
Wind Chill: 50°   Ceiling: 5000
Heat Index: 50°   Visibility: 10mi
Dew Point: 42°   Wind: 12mph
Humidity: 74%   Direction: 330°NNW
Pressure: 30.05"   Gusts: NA
Location:  40.1286°N, 85.3767°W
Report Text: KMIE 211353Z 33010KT 10SM FEW020 BKN050 10/06 A3005 RMK AO2 SLP172 T01000056
Loading
Personal Weather Stations






























Interactive Weather Map
Tropical Storm Tracking
New forecast layout! Learn more

10-Day Weather Forecast

Advertisements
Track Severe Weather on mobile